createdAt,value
2023-04-12T00:02:33.026Z,99142.47
2023-04-12T00:05:17.301Z,99148.25
2023-04-12T00:08:10.379Z,99136.69
2023-04-12T00:10:59.727Z,99142.84
2023-04-12T00:13:40.478Z,99146.78
2023-04-12T00:16:21.853Z,99147.59
2023-04-12T00:19:13.421Z,99153.78
2023-04-12T00:21:59.767Z,99151.28
2023-04-12T00:24:39.906Z,99150.47
2023-04-12T00:27:17.519Z,99151.72
2023-04-12T00:30:07.601Z,99158.28
2023-04-12T00:32:53.874Z,99145.47
2023-04-12T00:35:31.183Z,99141.78
2023-04-12T00:38:12.022Z,99146.28
2023-04-12T00:41:06.297Z,99135.56
2023-04-12T00:43:48.243Z,99145.44
2023-04-12T00:46:29.760Z,99143.41
2023-04-12T00:49:10.646Z,99143.00
2023-04-12T00:52:00.083Z,99137.84
2023-04-12T00:54:45.167Z,99136.78
2023-04-12T00:57:27.520Z,99147.88
2023-04-12T01:00:17.949Z,99141.06
2023-04-12T01:03:02.508Z,99137.19
2023-04-12T01:05:45.922Z,99136.75
2023-04-12T01:08:28.292Z,99144.78
2023-04-12T01:11:27.225Z,99145.84
2023-04-12T01:14:16.273Z,99137.34
2023-04-12T01:16:58.731Z,99139.22
2023-04-12T01:19:47.563Z,99144.75
2023-04-12T01:23:22.211Z,99141.06
2023-04-12T01:26:24.168Z,99143.75
2023-04-12T01:29:11.088Z,99141.44
2023-04-12T01:32:16.588Z,99152.56
2023-04-12T01:35:03.041Z,99141.44
2023-04-12T01:37:48.483Z,99141.25
2023-04-12T01:40:38.505Z,99150.88
2023-04-12T01:43:19.509Z,99135.25
2023-04-12T01:45:58.213Z,99149.88
2023-04-12T01:48:40.187Z,99145.75
2023-04-12T01:51:26.821Z,99156.00
2023-04-12T01:54:25.271Z,99153.19
2023-04-12T01:57:08.650Z,99144.53
2023-04-12T01:59:49.338Z,99159.09
2023-04-12T02:02:36.208Z,99147.38
2023-04-12T02:05:15.455Z,99141.81
2023-04-12T02:07:57.226Z,99149.41
2023-04-12T02:10:43.785Z,99138.31
2023-04-12T02:13:31.751Z,99143.38
2023-04-12T02:16:15.554Z,99132.91
2023-04-12T02:18:56.662Z,99139.53
2023-04-12T02:21:53.601Z,99148.38
2023-04-12T02:24:40.010Z,99148.16
2023-04-12T02:27:29.047Z,99149.19
2023-04-12T02:30:12.962Z,99139.13
2023-04-12T02:32:51.659Z,99147.34
2023-04-12T02:35:48.650Z,99145.47
2023-04-12T02:38:40.949Z,99138.19
2023-04-12T02:41:28.154Z,99134.94
2023-04-12T02:44:14.751Z,99131.22
2023-04-12T02:47:15.650Z,99127.94
2023-04-12T02:50:02.903Z,99130.41
2023-04-12T02:52:51.585Z,99124.22
2023-04-12T02:55:33.212Z,99122.19
2023-04-12T02:58:25.532Z,99120.13
2023-04-12T03:01:08.019Z,99133.25
2023-04-12T03:04:11.989Z,99130.56
2023-04-12T03:07:11.619Z,99130.09
2023-04-12T03:10:13.387Z,99127.06
2023-04-12T03:13:16.194Z,99136.50
2023-04-12T03:16:03.822Z,99140.22
2023-04-12T03:18:52.166Z,99139.59
2023-04-12T03:21:37.149Z,99134.88
2023-04-12T03:24:17.984Z,99125.75
2023-04-12T03:27:05.541Z,99129.69
2023-04-12T03:29:52.066Z,99124.91
2023-04-12T03:32:33.814Z,99128.19
2023-04-12T03:35:18.223Z,99126.97
2023-04-12T03:38:06.924Z,99129.97
2023-04-12T03:40:55.308Z,99127.75
2023-04-12T03:43:45.794Z,99121.53
2023-04-12T03:46:43.819Z,99126.66
2023-04-12T03:49:28.540Z,99121.91
2023-04-12T03:52:15.928Z,99119.59
2023-04-12T03:55:06.200Z,99116.31
2023-04-12T03:58:01.572Z,99116.19
2023-04-12T04:00:51.250Z,99121.41
2023-04-12T04:03:44.736Z,99117.75
2023-04-12T04:06:44.154Z,99123.50
2023-04-12T04:09:26.209Z,99121.47
2023-04-12T04:12:10.457Z,99112.47
2023-04-12T04:15:03.659Z,99113.75
2023-04-12T04:17:53.515Z,99114.84
2023-04-12T04:20:46.016Z,99109.50
2023-04-12T04:23:40.150Z,99111.16
2023-04-12T04:26:42.377Z,99113.28
2023-04-12T04:29:32.804Z,99108.69
2023-04-12T04:32:15.906Z,99102.75
2023-04-12T04:35:01.494Z,99098.03
2023-04-12T04:37:52.173Z,99109.56
2023-04-12T04:40:42.590Z,99108.63
2023-04-12T04:43:30.400Z,99105.56
2023-04-12T04:46:12.052Z,99114.00
2023-04-12T04:48:55.349Z,99111.38
2023-04-12T04:51:41.296Z,99111.56
2023-04-12T04:54:23.335Z,99112.66
2023-04-12T04:57:11.815Z,99104.06
2023-04-12T05:00:10.701Z,99099.56
2023-04-12T05:03:04.412Z,99101.84
2023-04-12T05:05:49.142Z,99104.56
2023-04-12T05:08:36.047Z,99115.56
2023-04-12T05:11:22.734Z,99112.06
2023-04-12T05:14:07.199Z,99113.78
2023-04-12T05:16:46.030Z,99102.44
2023-04-12T05:19:27.585Z,99113.59
2023-04-12T05:22:20.552Z,99103.28
2023-04-12T05:25:14.984Z,99105.13
2023-04-12T05:28:07.402Z,99109.13
2023-04-12T05:30:53.200Z,99108.84
2023-04-12T05:33:41.127Z,99109.16
2023-04-12T05:36:27.613Z,99102.34
2023-04-12T05:39:10.630Z,99104.69
2023-04-12T05:41:55.183Z,99106.72
2023-04-12T05:44:41.630Z,99104.81
2023-04-12T05:47:31.894Z,99106.53
2023-04-12T05:50:21.906Z,99104.84
2023-04-12T05:53:08.815Z,99105.09
2023-04-12T05:55:50.463Z,99107.22
2023-04-12T05:58:34.154Z,99105.34
2023-04-12T06:01:20.568Z,99104.78
2023-04-12T06:04:01.728Z,99106.25
2023-04-12T06:06:43.660Z,99116.59
2023-04-12T06:09:29.892Z,99101.19
2023-04-12T06:12:13.561Z,99118.22
2023-04-12T06:14:52.992Z,99124.75
2023-04-12T06:17:31.177Z,99115.66
2023-04-12T06:20:15.564Z,99127.22
2023-04-12T06:22:56.617Z,99119.09
2023-04-12T06:25:37.314Z,99118.81
2023-04-12T06:28:28.170Z,99114.94
2023-04-12T06:31:12.670Z,99114.72
2023-04-12T06:34:02.120Z,99121.81
2023-04-12T06:36:56.229Z,99120.84
2023-04-12T06:39:37.739Z,99118.00
2023-04-12T06:42:14.737Z,99127.41
2023-04-12T06:44:51.216Z,99116.84
2023-04-12T06:47:51.137Z,99126.16
2023-04-12T06:50:38.461Z,99122.50
2023-04-12T06:53:17.174Z,99129.53
2023-04-12T06:55:57.262Z,99129.88
2023-04-12T06:58:41.745Z,99128.59
2023-04-12T07:01:26.645Z,99123.13
2023-04-12T07:04:17.028Z,99122.00
2023-04-12T07:06:59.173Z,99135.19
2023-04-12T07:09:48.314Z,99128.13
2023-04-12T07:12:34.764Z,99126.38
2023-04-12T07:15:17.715Z,99135.63
2023-04-12T07:17:56.167Z,99124.84
2023-04-12T07:20:38.113Z,99123.22
2023-04-12T07:23:21.338Z,99131.78
2023-04-12T07:26:08.510Z,99134.25
2023-04-12T07:28:48.883Z,99134.44
2023-04-12T07:31:38.552Z,99133.16
2023-04-12T07:34:16.589Z,99131.25
2023-04-12T07:37:02.903Z,99137.69
2023-04-12T07:39:42.400Z,99151.03
2023-04-12T07:42:29.135Z,99149.94
2023-04-12T07:45:08.199Z,99157.09
2023-04-12T07:47:57.515Z,99150.06
2023-04-12T07:50:42.187Z,99149.31
2023-04-12T07:53:42.646Z,99156.59
2023-04-12T07:56:34.530Z,99163.03
2023-04-12T07:59:21.124Z,99158.38
2023-04-12T08:02:03.449Z,99146.31
2023-04-12T08:04:45.938Z,99150.78
2023-04-12T08:07:35.741Z,99159.28
2023-04-12T08:10:16.666Z,99155.50
2023-04-12T08:13:00.106Z,99161.88
2023-04-12T08:15:44.256Z,99152.19
2023-04-12T08:18:25.280Z,99152.50
2023-04-12T08:21:03.544Z,99147.91
2023-04-12T08:23:52.106Z,99155.44
2023-04-12T08:26:29.902Z,99151.41
2023-04-12T08:29:20.186Z,99147.06
2023-04-12T08:32:11.800Z,99145.72
2023-04-12T08:34:55.171Z,99135.78
2023-04-12T08:37:35.965Z,99137.03
2023-04-12T08:40:22.088Z,99148.28
2023-04-12T08:43:13.265Z,99135.97
2023-04-12T08:45:57.077Z,99130.56
2023-04-12T08:48:47.905Z,99134.25
2023-04-12T08:51:40.100Z,99135.00
2023-04-12T08:54:21.798Z,99125.28
2023-04-12T08:57:17.705Z,99132.50
2023-04-12T08:59:57.439Z,99130.53
2023-04-12T09:02:38.675Z,99136.56
2023-04-12T09:05:23.421Z,99133.16
2023-04-12T09:08:01.789Z,99135.19
2023-04-12T09:11:06.208Z,99141.16
2023-04-12T09:13:52.540Z,99129.31
2023-04-12T09:17:11.199Z,99128.88
2023-04-12T09:19:55.132Z,99126.03
2023-04-12T09:23:02.166Z,99120.72
2023-04-12T09:26:09.778Z,99129.44
2023-04-12T09:28:56.156Z,99114.44
2023-04-12T09:31:34.821Z,99106.72
2023-04-12T09:37:25.122Z,99100.34
2023-04-12T09:40:15.132Z,99095.34
2023-04-12T09:43:03.454Z,99101.28
2023-04-12T09:45:50.379Z,99095.16
2023-04-12T09:48:38.550Z,99100.03
2023-04-12T09:51:16.403Z,99096.72
2023-04-12T09:54:01.954Z,99083.94
2023-04-12T09:56:48.689Z,99084.56
2023-04-12T09:59:38.102Z,99073.91
2023-04-12T10:02:33.927Z,99083.97
2023-04-12T10:05:18.958Z,99095.22
2023-04-12T10:08:09.125Z,99073.47
2023-04-12T10:10:49.866Z,99081.88
2023-04-12T10:13:33.142Z,99081.00
2023-04-12T10:16:18.841Z,99082.47
2023-04-12T10:19:04.478Z,99074.88
2023-04-12T10:21:48.263Z,99078.47
2023-04-12T10:24:25.582Z,99079.47
2023-04-12T10:27:10.449Z,99065.44
2023-04-12T10:29:54.033Z,99082.84
2023-04-12T10:32:35.501Z,99072.34
2023-04-12T10:35:21.795Z,99075.25
2023-04-12T10:38:17.379Z,99068.19
2023-04-12T10:41:21.077Z,99069.88
2023-04-12T10:43:54.653Z,99065.72
2023-04-12T10:47:06.695Z,99061.63
2023-04-12T10:50:30.217Z,99053.28
2023-04-12T10:53:31.114Z,99054.69
2023-04-12T10:56:33.108Z,99055.78
2023-04-12T10:59:24.316Z,99050.25
2023-04-12T11:02:25.551Z,99060.16
2023-04-12T11:05:19.516Z,99050.03
2023-04-12T11:08:09.311Z,99050.81
2023-04-12T11:10:58.228Z,99049.59
2023-04-12T11:13:54.008Z,99044.25
2023-04-12T11:16:34.926Z,99051.97
2023-04-12T11:19:25.682Z,99039.41
2023-04-12T11:22:12.524Z,99041.56
2023-04-12T11:25:05.394Z,99039.00
2023-04-12T11:27:55.094Z,99035.28
2023-04-12T11:30:53.826Z,99029.88
2023-04-12T11:33:48.286Z,99032.91
2023-04-12T11:36:31.182Z,99038.59
2023-04-12T11:39:18.196Z,99032.00
2023-04-12T11:42:16.036Z,99041.88
2023-04-12T11:45:07.747Z,99035.06
2023-04-12T11:48:00.251Z,99022.47
2023-04-12T11:50:49.988Z,99021.41
2023-04-12T11:53:46.512Z,99018.91
2023-04-12T11:56:32.751Z,99008.91
2023-04-12T11:59:07.807Z,99008.91
2023-04-12T12:01:59.074Z,99006.44
2023-04-12T12:04:40.273Z,99007.25
2023-04-12T12:07:24.440Z,98998.56
2023-04-12T12:10:06.450Z,98993.53
2023-04-12T12:12:51.476Z,98996.50
2023-04-12T12:15:39.163Z,98994.56
2023-04-12T12:18:31.602Z,98986.31
2023-04-12T12:21:14.879Z,98976.50
2023-04-12T12:24:01.634Z,98977.41
2023-04-12T12:26:42.036Z,98978.72
2023-04-12T12:29:28.895Z,98990.66
2023-04-12T12:32:24.195Z,98977.41
2023-04-12T12:35:08.742Z,98972.41
2023-04-12T12:38:06.872Z,98975.50
2023-04-12T12:40:52.956Z,98970.38
2023-04-12T12:43:55.112Z,98971.19
2023-04-12T12:49:24.894Z,98963.94
2023-04-12T12:52:11.205Z,98959.22
2023-04-12T12:54:53.113Z,98971.88
2023-04-12T12:57:35.842Z,98966.41
2023-04-12T13:00:12.269Z,98972.97
2023-04-12T13:03:03.392Z,98962.81
2023-04-12T13:05:49.685Z,98960.88
2023-04-12T13:08:40.159Z,98969.78
2023-04-12T13:11:18.423Z,98958.91
2023-04-12T13:13:59.513Z,98953.97
2023-04-12T13:16:41.332Z,98950.72
2023-04-12T13:19:18.429Z,98944.09
2023-04-12T13:22:05.142Z,98953.28
2023-04-12T13:25:00.494Z,98938.00
2023-04-12T13:27:46.933Z,98935.22
2023-04-12T13:30:32.156Z,98936.13
2023-04-12T13:33:09.946Z,98940.84
2023-04-12T13:35:58.637Z,98946.28
2023-04-12T13:38:40.449Z,98937.75
2023-04-12T13:41:23.463Z,98937.38
2023-04-12T13:44:11.896Z,98931.13
2023-04-12T13:47:01.135Z,98930.75
2023-04-12T13:49:43.928Z,98932.06
2023-04-12T13:52:31.183Z,98930.16
2023-04-12T13:55:17.485Z,98927.03
2023-04-12T13:58:03.866Z,98936.13
2023-04-12T14:00:56.995Z,98924.34
2023-04-12T14:03:38.168Z,98922.94
2023-04-12T14:06:20.286Z,98929.66
2023-04-12T14:09:06.691Z,98929.38
2023-04-12T14:11:56.168Z,98929.19
2023-04-12T14:14:39.129Z,98914.22
2023-04-12T14:17:21.280Z,98914.06
2023-04-12T14:20:02.330Z,98915.69
2023-04-12T14:22:57.996Z,98909.63
2023-04-12T14:25:42.659Z,98907.66
2023-04-12T14:28:31.770Z,98911.16
2023-04-12T14:31:15.453Z,98908.75
2023-04-12T14:34:05.613Z,98914.94
2023-04-12T14:36:45.656Z,98912.97
2023-04-12T14:39:36.119Z,98914.25
2023-04-12T14:42:22.860Z,98915.03
2023-04-12T14:45:01.647Z,98911.88
2023-04-12T14:47:48.478Z,98913.34
2023-04-12T14:50:30.726Z,98916.69
2023-04-12T14:53:16.464Z,98905.47
2023-04-12T14:56:08.488Z,98902.28
2023-04-12T14:58:52.344Z,98908.31
2023-04-12T15:01:40.368Z,98908.75
2023-04-12T15:04:30.273Z,98906.00
2023-04-12T15:07:16.008Z,98902.88
2023-04-12T15:10:10.611Z,98900.81
2023-04-12T15:12:54.546Z,98906.69
2023-04-12T15:15:37.358Z,98902.63
2023-04-12T15:18:20.054Z,98896.59
2023-04-12T15:21:11.571Z,98892.34
2023-04-12T15:23:53.146Z,98897.78
2023-04-12T15:26:37.320Z,98892.50
2023-04-12T15:29:25.515Z,98893.59
2023-04-12T15:32:08.753Z,98900.06
2023-04-12T15:34:53.126Z,98896.44
2023-04-12T15:37:44.585Z,98895.47
2023-04-12T15:40:34.993Z,98897.66
2023-04-12T15:43:24.495Z,98904.78
2023-04-12T15:46:08.229Z,98914.25
2023-04-12T15:48:55.269Z,98912.69
2023-04-12T15:51:37.187Z,98911.13
2023-04-12T15:54:19.339Z,98912.09
2023-04-12T15:57:02.726Z,98902.50
2023-04-12T15:59:50.964Z,98905.03
2023-04-12T16:02:28.761Z,98898.59
2023-04-12T16:05:18.130Z,98901.06
2023-04-12T16:08:04.108Z,98907.84
2023-04-12T16:10:55.758Z,98909.66
2023-04-12T16:13:47.101Z,98904.09
2023-04-12T16:16:29.777Z,98901.66
2023-04-12T16:19:13.194Z,98910.34
2023-04-12T16:22:01.923Z,98904.34
2023-04-12T16:24:53.682Z,98894.84
2023-04-12T16:27:33.150Z,98896.16
2023-04-12T16:30:16.468Z,98891.25
2023-04-12T16:33:03.004Z,98890.59
2023-04-12T16:35:42.691Z,98888.44
2023-04-12T16:38:25.518Z,98883.50
2023-04-12T16:41:14.222Z,98886.91
2023-04-12T16:43:59.479Z,98880.69
2023-04-12T16:46:47.707Z,98876.72
2023-04-12T16:49:35.495Z,98878.16
2023-04-12T16:52:29.199Z,98873.88
2023-04-12T16:55:17.204Z,98887.00
2023-04-12T16:57:58.130Z,98875.28
2023-04-12T17:00:45.997Z,98881.72
2023-04-12T17:03:31.065Z,98879.19
2023-04-12T17:06:19.126Z,98880.34
2023-04-12T17:09:03.393Z,98884.09
2023-04-12T17:11:50.224Z,98874.72
2023-04-12T17:14:24.839Z,98877.25
2023-04-12T17:17:06.800Z,98886.34
2023-04-12T17:19:56.994Z,98883.41
2023-04-12T17:22:37.316Z,98888.16
2023-04-12T17:25:18.134Z,98890.81
2023-04-12T17:28:21.852Z,98887.06
2023-04-12T17:31:09.818Z,98879.72
2023-04-12T17:33:54.159Z,98884.38
2023-04-12T17:36:38.326Z,98885.69
2023-04-12T17:39:21.668Z,98886.41
2023-04-12T17:42:08.109Z,98885.31
2023-04-12T17:44:52.614Z,98880.66
2023-04-12T17:47:35.129Z,98883.03
2023-04-12T17:50:17.009Z,98875.09
2023-04-12T17:53:03.134Z,98884.50
2023-04-12T17:55:58.836Z,98886.44
2023-04-12T17:58:41.218Z,98885.47
2023-04-12T18:01:29.428Z,98891.94
2023-04-12T18:04:22.147Z,98896.03
2023-04-12T18:07:03.937Z,98887.00
2023-04-12T18:09:48.337Z,98898.81
2023-04-12T18:12:29.661Z,98891.75
2023-04-12T18:15:15.537Z,98891.38
2023-04-12T18:17:56.531Z,98889.81
2023-04-12T18:20:45.963Z,98883.38
2023-04-12T18:23:47.166Z,98874.69
2023-04-12T18:26:29.297Z,98883.66
2023-04-12T18:29:17.532Z,98885.97
2023-04-12T18:32:07.117Z,98888.50
2023-04-12T18:34:54.043Z,98879.44
2023-04-12T18:37:40.981Z,98885.25
2023-04-12T18:40:19.145Z,98871.38
2023-04-12T18:43:03.210Z,98879.38
2023-04-12T18:45:54.933Z,98883.78
2023-04-12T18:48:35.866Z,98887.16
2023-04-12T18:51:29.123Z,98899.84
2023-04-12T18:54:23.983Z,98910.34
2023-04-12T18:57:21.203Z,98897.41
2023-04-12T19:00:07.172Z,98895.81
2023-04-12T19:02:54.166Z,98902.47
2023-04-12T19:05:44.528Z,98897.56
2023-04-12T19:08:29.043Z,98896.75
2023-04-12T19:11:11.383Z,98904.47
2023-04-12T19:13:54.087Z,98905.97
2023-04-12T19:16:34.300Z,98899.56
2023-04-12T19:19:20.915Z,98906.69
2023-04-12T19:22:15.169Z,98905.53
2023-04-12T19:25:01.057Z,98907.38
2023-04-12T19:27:48.622Z,98911.28
2023-04-12T19:30:32.596Z,98904.88
2023-04-12T19:33:16.389Z,98904.09
2023-04-12T19:36:03.019Z,98899.97
2023-04-12T19:38:43.590Z,98899.16
2023-04-12T19:41:32.987Z,98894.19
2023-04-12T19:44:10.815Z,98893.41
2023-04-12T19:46:54.514Z,98895.84
2023-04-12T19:49:32.501Z,98896.88
2023-04-12T19:52:20.174Z,98903.09
2023-04-12T19:55:06.666Z,98896.50
2023-04-12T19:57:59.542Z,98888.28
2023-04-12T20:00:48.266Z,98889.31
2023-04-12T20:03:55.119Z,98885.41
2023-04-12T20:06:45.086Z,98879.41
2023-04-12T20:09:34.366Z,98889.75
2023-04-12T20:12:24.104Z,98882.75
2023-04-12T20:15:05.075Z,98888.34
2023-04-12T20:17:54.860Z,98887.28
2023-04-12T20:20:36.908Z,98876.56
2023-04-12T20:23:15.185Z,98878.03
2023-04-12T20:25:57.221Z,98873.94
2023-04-12T20:28:49.506Z,98875.19
2023-04-12T20:31:30.183Z,98872.88
2023-04-12T20:34:13.442Z,98877.66
2023-04-12T20:37:01.133Z,98872.50
2023-04-12T20:39:36.663Z,98873.13
2023-04-12T20:42:26.093Z,98867.41
2023-04-12T20:45:18.071Z,98873.56
2023-04-12T20:48:09.295Z,98871.94
2023-04-12T20:50:48.219Z,98866.38
2023-04-12T20:53:34.511Z,98862.28
2023-04-12T20:56:23.311Z,98853.59
2023-04-12T20:59:03.028Z,98854.22
2023-04-12T21:01:46.245Z,98856.50
2023-04-12T21:04:27.813Z,98847.22
2023-04-12T21:07:07.112Z,98849.91
2023-04-12T21:09:55.612Z,98843.31
2023-04-12T21:12:39.170Z,98844.53
2023-04-12T21:15:25.967Z,98848.69
2023-04-12T21:18:04.844Z,98844.56
2023-04-12T21:20:45.299Z,98854.25
2023-04-12T21:23:19.132Z,98859.81
2023-04-12T21:26:02.390Z,98857.97
2023-04-12T21:28:51.623Z,98855.69
2023-04-12T21:31:39.235Z,98845.81
2023-04-12T21:37:00.966Z,98835.31
2023-04-12T21:39:39.113Z,98831.16
2023-04-12T21:42:38.728Z,98839.41
2023-04-12T21:45:23.145Z,98838.56
2023-04-12T21:48:07.300Z,98835.88
2023-04-12T21:50:55.281Z,98830.31
2023-04-12T21:53:33.439Z,98832.41
2023-04-12T21:56:14.387Z,98831.38
2023-04-12T21:59:05.711Z,98835.09
2023-04-12T22:01:51.624Z,98827.66
2023-04-12T22:04:40.917Z,98822.31
2023-04-12T22:07:28.628Z,98818.19
2023-04-12T22:10:18.463Z,98808.91
2023-04-12T22:12:59.979Z,98805.66
2023-04-12T22:15:43.677Z,98802.13
2023-04-12T22:18:28.094Z,98796.78
2023-04-12T22:21:08.868Z,98798.84
2023-04-12T22:23:51.098Z,98798.03
2023-04-12T22:26:26.335Z,98805.84
2023-04-12T22:29:13.077Z,98805.22
2023-04-12T22:31:59.423Z,98813.69
2023-04-12T22:34:39.961Z,98813.69
2023-04-12T22:37:19.071Z,98809.75
2023-04-12T22:40:06.456Z,98807.88
2023-04-12T22:42:51.067Z,98818.81
2023-04-12T22:45:27.034Z,98814.28
2023-04-12T22:48:14.875Z,98814.28
2023-04-12T22:50:54.593Z,98812.03
2023-04-12T22:53:37.121Z,98808.28
2023-04-12T22:56:24.151Z,98809.94
2023-04-12T22:59:05.022Z,98812.41
2023-04-12T23:01:56.580Z,98803.34
2023-04-12T23:04:35.331Z,98790.59
2023-04-12T23:07:24.633Z,98786.03
2023-04-12T23:10:10.912Z,98787.69
2023-04-12T23:13:06.504Z,98796.75
2023-04-12T23:15:45.419Z,98798.41
2023-04-12T23:18:27.091Z,98795.53
2023-04-12T23:21:14.782Z,98790.41
2023-04-12T23:24:08.633Z,98788.56
2023-04-12T23:26:45.606Z,98788.56
2023-04-12T23:29:33.994Z,98794.72
2023-04-12T23:32:17.587Z,98785.25
2023-04-12T23:34:54.231Z,98788.97
2023-04-12T23:37:43.013Z,98770.41
2023-04-12T23:40:20.146Z,98778.03
2023-04-12T23:43:06.930Z,98785.44
2023-04-12T23:45:49.130Z,98777.63
2023-04-12T23:48:29.161Z,98778.44
2023-04-12T23:51:15.010Z,98777.81
2023-04-12T23:54:06.389Z,98785.66
2023-04-12T23:56:59.115Z,98779.44
2023-04-12T23:59:38.472Z,98773.03
